sensor_id;sensor_type;location;lat;lon;timestamp;P1;durP1;ratioP1;P2;durP2;ratioP2
73980;SDS011;62348;51.412;5.436;2022-12-18T00:01:51;57.67;;;27.30;;
73980;SDS011;62348;51.412;5.436;2022-12-18T00:04:22;46.97;;;23.48;;
73980;SDS011;62348;51.412;5.436;2022-12-18T00:06:48;51.03;;;25.85;;
73980;SDS011;62348;51.412;5.436;2022-12-18T00:09:14;48.60;;;22.52;;
73980;SDS011;62348;51.412;5.436;2022-12-18T00:11:39;49.83;;;24.48;;
73980;SDS011;62348;51.412;5.436;2022-12-18T00:14:05;52.83;;;24.70;;
73980;SDS011;62348;51.412;5.436;2022-12-18T00:16:30;54.67;;;25.30;;
73980;SDS011;62348;51.412;5.436;2022-12-18T00:18:58;45.90;;;22.45;;
73980;SDS011;62348;51.412;5.436;2022-12-18T00:21:24;50.22;;;22.23;;
73980;SDS011;62348;51.412;5.436;2022-12-18T00:23:51;50.83;;;22.83;;
73980;SDS011;62348;51.412;5.436;2022-12-18T00:26:18;50.63;;;23.42;;
73980;SDS011;62348;51.412;5.436;2022-12-18T00:28:46;48.80;;;23.67;;
73980;SDS011;62348;51.412;5.436;2022-12-18T00:31:12;51.05;;;23.30;;
73980;SDS011;62348;51.412;5.436;2022-12-18T00:33:39;45.72;;;22.20;;
73980;SDS011;62348;51.412;5.436;2022-12-18T00:38:42;48.78;;;21.77;;
73980;SDS011;62348;51.412;5.436;2022-12-18T00:41:09;47.63;;;22.92;;
73980;SDS011;62348;51.412;5.436;2022-12-18T00:43:36;42.15;;;21.60;;
73980;SDS011;62348;51.412;5.436;2022-12-18T00:46:02;43.65;;;21.13;;
73980;SDS011;62348;51.412;5.436;2022-12-18T00:48:28;44.50;;;22.08;;
73980;SDS011;62348;51.412;5.436;2022-12-18T00:50:53;45.22;;;21.25;;
73980;SDS011;62348;51.412;5.436;2022-12-18T00:53:19;46.13;;;21.85;;
73980;SDS011;62348;51.412;5.436;2022-12-18T00:55:44;41.20;;;21.38;;
73980;SDS011;62348;51.412;5.436;2022-12-18T00:58:14;47.30;;;22.83;;
73980;SDS011;62348;51.412;5.436;2022-12-18T01:00:40;50.50;;;24.27;;
73980;SDS011;62348;51.412;5.436;2022-12-18T01:03:06;53.15;;;22.77;;
73980;SDS011;62348;51.412;5.436;2022-12-18T01:05:32;54.38;;;22.02;;
73980;SDS011;62348;51.412;5.436;2022-12-18T01:07:58;48.50;;;23.73;;
73980;SDS011;62348;51.412;5.436;2022-12-18T01:10:24;47.75;;;21.50;;
73980;SDS011;62348;51.412;5.436;2022-12-18T01:12:51;51.22;;;23.98;;
73980;SDS011;62348;51.412;5.436;2022-12-18T01:15:16;45.63;;;22.42;;
73980;SDS011;62348;51.412;5.436;2022-12-18T01:17:42;46.70;;;23.77;;
73980;SDS011;62348;51.412;5.436;2022-12-18T01:20:09;44.50;;;21.33;;
73980;SDS011;62348;51.412;5.436;2022-12-18T01:22:35;49.15;;;22.30;;
73980;SDS011;62348;51.412;5.436;2022-12-18T01:25:01;45.08;;;20.60;;
73980;SDS011;62348;51.412;5.436;2022-12-18T01:27:27;46.75;;;22.42;;
73980;SDS011;62348;51.412;5.436;2022-12-18T01:29:52;46.35;;;22.50;;
73980;SDS011;62348;51.412;5.436;2022-12-18T01:32:17;45.38;;;22.05;;
73980;SDS011;62348;51.412;5.436;2022-12-18T01:34:43;46.92;;;21.50;;
73980;SDS011;62348;51.412;5.436;2022-12-18T01:37:08;45.25;;;21.48;;
73980;SDS011;62348;51.412;5.436;2022-12-18T01:39:34;43.22;;;20.30;;
73980;SDS011;62348;51.412;5.436;2022-12-18T01:42:00;38.50;;;20.15;;
73980;SDS011;62348;51.412;5.436;2022-12-18T01:52:33;44.97;;;21.40;;
73980;SDS011;62348;51.412;5.436;2022-12-18T01:54:59;45.00;;;20.85;;
73980;SDS011;62348;51.412;5.436;2022-12-18T01:57:27;39.88;;;20.05;;
73980;SDS011;62348;51.412;5.436;2022-12-18T01:59:53;46.28;;;20.73;;
73980;SDS011;62348;51.412;5.436;2022-12-18T02:02:24;46.25;;;20.83;;
73980;SDS011;62348;51.412;5.436;2022-12-18T02:04:52;42.78;;;21.23;;
73980;SDS011;62348;51.412;5.436;2022-12-18T02:09:56;42.28;;;22.10;;
73980;SDS011;62348;51.412;5.436;2022-12-18T02:12:41;44.00;;;20.67;;
73980;SDS011;62348;51.412;5.436;2022-12-18T02:15:15;41.92;;;20.25;;
73980;SDS011;62348;51.412;5.436;2022-12-18T02:17:54;39.97;;;20.25;;
73980;SDS011;62348;51.412;5.436;2022-12-18T02:23:10;47.58;;;20.33;;
73980;SDS011;62348;51.412;5.436;2022-12-18T02:28:38;44.78;;;21.58;;
73980;SDS011;62348;51.412;5.436;2022-12-18T02:31:10;45.20;;;22.38;;
73980;SDS011;62348;51.412;5.436;2022-12-18T02:33:39;42.03;;;19.50;;
73980;SDS011;62348;51.412;5.436;2022-12-18T02:36:08;45.78;;;20.98;;
73980;SDS011;62348;51.412;5.436;2022-12-18T02:38:35;43.67;;;20.35;;
73980;SDS011;62348;51.412;5.436;2022-12-18T02:41:02;41.92;;;19.70;;
73980;SDS011;62348;51.412;5.436;2022-12-18T02:43:29;38.83;;;20.35;;
73980;SDS011;62348;51.412;5.436;2022-12-18T02:45:58;44.72;;;19.98;;
73980;SDS011;62348;51.412;5.436;2022-12-18T02:48:32;42.47;;;21.25;;
73980;SDS011;62348;51.412;5.436;2022-12-18T02:51:04;43.53;;;20.52;;
73980;SDS011;62348;51.412;5.436;2022-12-18T02:53:42;42.45;;;20.60;;
73980;SDS011;62348;51.412;5.436;2022-12-18T02:58:52;40.53;;;19.67;;
73980;SDS011;62348;51.412;5.436;2022-12-18T03:01:49;35.97;;;18.07;;
73980;SDS011;62348;51.412;5.436;2022-12-18T03:04:27;39.08;;;18.75;;
73980;SDS011;62348;51.412;5.436;2022-12-18T03:07:04;37.55;;;19.17;;
73980;SDS011;62348;51.412;5.436;2022-12-18T03:09:35;35.42;;;16.55;;
73980;SDS011;62348;51.412;5.436;2022-12-18T03:12:06;36.40;;;17.95;;
73980;SDS011;62348;51.412;5.436;2022-12-18T03:17:59;33.45;;;18.55;;
73980;SDS011;62348;51.412;5.436;2022-12-18T03:20:30;35.05;;;18.10;;
73980;SDS011;62348;51.412;5.436;2022-12-18T03:23:09;34.47;;;18.02;;
73980;SDS011;62348;51.412;5.436;2022-12-18T03:25:39;37.47;;;17.60;;
73980;SDS011;62348;51.412;5.436;2022-12-18T03:28:08;40.50;;;17.90;;
73980;SDS011;62348;51.412;5.436;2022-12-18T03:30:37;37.30;;;18.75;;
73980;SDS011;62348;51.412;5.436;2022-12-18T03:33:29;39.55;;;19.23;;
73980;SDS011;62348;51.412;5.436;2022-12-18T03:35:59;34.35;;;16.27;;
73980;SDS011;62348;51.412;5.436;2022-12-18T03:38:25;35.30;;;17.40;;
73980;SDS011;62348;51.412;5.436;2022-12-18T03:43:56;32.63;;;16.55;;
73980;SDS011;62348;51.412;5.436;2022-12-18T03:46:30;32.88;;;16.15;;
73980;SDS011;62348;51.412;5.436;2022-12-18T03:49:05;34.95;;;17.25;;
73980;SDS011;62348;51.412;5.436;2022-12-18T03:51:41;38.13;;;18.23;;
73980;SDS011;62348;51.412;5.436;2022-12-18T03:54:15;36.17;;;15.48;;
73980;SDS011;62348;51.412;5.436;2022-12-18T03:56:44;32.75;;;16.73;;
73980;SDS011;62348;51.412;5.436;2022-12-18T03:59:13;31.67;;;16.60;;
73980;SDS011;62348;51.412;5.436;2022-12-18T04:01:42;28.58;;;15.27;;
73980;SDS011;62348;51.412;5.436;2022-12-18T04:04:11;31.15;;;15.98;;
73980;SDS011;62348;51.412;5.436;2022-12-18T04:06:39;32.05;;;16.90;;
73980;SDS011;62348;51.412;5.436;2022-12-18T04:09:07;32.55;;;15.77;;
73980;SDS011;62348;51.412;5.436;2022-12-18T04:11:33;29.45;;;15.23;;
73980;SDS011;62348;51.412;5.436;2022-12-18T04:13:58;33.72;;;16.20;;
73980;SDS011;62348;51.412;5.436;2022-12-18T04:16:27;35.80;;;17.58;;
73980;SDS011;62348;51.412;5.436;2022-12-18T04:18:53;36.95;;;17.60;;
73980;SDS011;62348;51.412;5.436;2022-12-18T04:21:19;35.40;;;15.70;;
73980;SDS011;62348;51.412;5.436;2022-12-18T04:23:44;29.58;;;16.80;;
73980;SDS011;62348;51.412;5.436;2022-12-18T04:26:10;31.83;;;17.83;;
73980;SDS011;62348;51.412;5.436;2022-12-18T04:28:36;30.75;;;14.38;;
73980;SDS011;62348;51.412;5.436;2022-12-18T04:31:01;28.33;;;15.07;;
73980;SDS011;62348;51.412;5.436;2022-12-18T04:33:27;32.95;;;16.20;;
73980;SDS011;62348;51.412;5.436;2022-12-18T04:35:52;29.88;;;16.25;;
73980;SDS011;62348;51.412;5.436;2022-12-18T04:38:18;32.03;;;16.30;;
73980;SDS011;62348;51.412;5.436;2022-12-18T04:40:43;31.75;;;14.85;;
73980;SDS011;62348;51.412;5.436;2022-12-18T04:43:09;28.60;;;14.90;;
73980;SDS011;62348;51.412;5.436;2022-12-18T04:45:34;27.83;;;14.38;;
73980;SDS011;62348;51.412;5.436;2022-12-18T04:48:00;28.85;;;14.45;;
73980;SDS011;62348;51.412;5.436;2022-12-18T04:50:26;28.88;;;15.10;;
73980;SDS011;62348;51.412;5.436;2022-12-18T04:52:52;28.38;;;14.45;;
73980;SDS011;62348;51.412;5.436;2022-12-18T04:55:18;27.20;;;14.52;;
73980;SDS011;62348;51.412;5.436;2022-12-18T04:57:43;31.65;;;15.80;;
73980;SDS011;62348;51.412;5.436;2022-12-18T05:00:08;31.95;;;15.40;;
73980;SDS011;62348;51.412;5.436;2022-12-18T05:02:34;28.08;;;13.57;;
73980;SDS011;62348;51.412;5.436;2022-12-18T05:05:00;29.38;;;14.68;;
73980;SDS011;62348;51.412;5.436;2022-12-18T05:07:25;28.83;;;14.88;;
73980;SDS011;62348;51.412;5.436;2022-12-18T05:09:50;34.05;;;15.13;;
73980;SDS011;62348;51.412;5.436;2022-12-18T05:12:16;31.70;;;15.15;;
73980;SDS011;62348;51.412;5.436;2022-12-18T05:14:41;30.15;;;15.15;;
73980;SDS011;62348;51.412;5.436;2022-12-18T05:17:06;26.85;;;13.63;;
73980;SDS011;62348;51.412;5.436;2022-12-18T05:19:32;31.02;;;15.00;;
73980;SDS011;62348;51.412;5.436;2022-12-18T05:21:57;31.52;;;14.73;;
73980;SDS011;62348;51.412;5.436;2022-12-18T05:24:23;29.00;;;14.88;;
73980;SDS011;62348;51.412;5.436;2022-12-18T05:26:48;28.17;;;14.88;;
73980;SDS011;62348;51.412;5.436;2022-12-18T05:29:14;28.02;;;14.50;;
73980;SDS011;62348;51.412;5.436;2022-12-18T05:31:39;26.27;;;13.50;;
73980;SDS011;62348;51.412;5.436;2022-12-18T05:34:05;27.83;;;15.35;;
73980;SDS011;62348;51.412;5.436;2022-12-18T05:36:31;29.00;;;14.68;;
73980;SDS011;62348;51.412;5.436;2022-12-18T05:38:56;28.77;;;14.45;;
73980;SDS011;62348;51.412;5.436;2022-12-18T05:41:22;28.70;;;13.32;;
73980;SDS011;62348;51.412;5.436;2022-12-18T05:43:47;26.15;;;13.90;;
73980;SDS011;62348;51.412;5.436;2022-12-18T05:46:14;28.08;;;14.30;;
73980;SDS011;62348;51.412;5.436;2022-12-18T05:48:41;29.55;;;13.85;;
73980;SDS011;62348;51.412;5.436;2022-12-18T05:51:08;27.10;;;14.73;;
73980;SDS011;62348;51.412;5.436;2022-12-18T05:53:36;30.40;;;13.30;;
73980;SDS011;62348;51.412;5.436;2022-12-18T05:56:03;25.48;;;14.23;;
73980;SDS011;62348;51.412;5.436;2022-12-18T05:58:30;28.90;;;14.98;;
73980;SDS011;62348;51.412;5.436;2022-12-18T06:00:56;23.65;;;13.25;;
73980;SDS011;62348;51.412;5.436;2022-12-18T06:03:22;25.42;;;12.98;;
73980;SDS011;62348;51.412;5.436;2022-12-18T06:05:47;26.48;;;14.07;;
73980;SDS011;62348;51.412;5.436;2022-12-18T06:08:13;26.08;;;13.20;;
73980;SDS011;62348;51.412;5.436;2022-12-18T06:10:39;26.15;;;14.38;;
73980;SDS011;62348;51.412;5.436;2022-12-18T06:13:05;25.33;;;13.35;;
73980;SDS011;62348;51.412;5.436;2022-12-18T06:15:31;25.40;;;13.35;;
73980;SDS011;62348;51.412;5.436;2022-12-18T06:17:57;26.40;;;12.63;;
73980;SDS011;62348;51.412;5.436;2022-12-18T06:20:22;26.52;;;12.57;;
73980;SDS011;62348;51.412;5.436;2022-12-18T06:22:47;22.52;;;12.45;;
73980;SDS011;62348;51.412;5.436;2022-12-18T06:25:13;24.60;;;12.60;;
73980;SDS011;62348;51.412;5.436;2022-12-18T06:27:39;25.42;;;13.60;;
73980;SDS011;62348;51.412;5.436;2022-12-18T06:30:05;25.13;;;12.20;;
73980;SDS011;62348;51.412;5.436;2022-12-18T06:32:31;22.85;;;12.18;;
73980;SDS011;62348;51.412;5.436;2022-12-18T06:34:57;30.58;;;13.30;;
73980;SDS011;62348;51.412;5.436;2022-12-18T06:37:22;26.30;;;12.40;;
73980;SDS011;62348;51.412;5.436;2022-12-18T06:39:51;25.75;;;12.77;;
73980;SDS011;62348;51.412;5.436;2022-12-18T06:42:21;32.42;;;14.07;;
73980;SDS011;62348;51.412;5.436;2022-12-18T06:44:46;26.65;;;12.85;;
73980;SDS011;62348;51.412;5.436;2022-12-18T06:47:12;25.15;;;12.10;;
73980;SDS011;62348;51.412;5.436;2022-12-18T06:49:37;25.17;;;11.98;;
73980;SDS011;62348;51.412;5.436;2022-12-18T06:52:02;30.38;;;14.68;;
73980;SDS011;62348;51.412;5.436;2022-12-18T06:54:28;24.38;;;12.63;;
73980;SDS011;62348;51.412;5.436;2022-12-18T06:56:53;30.30;;;14.55;;
73980;SDS011;62348;51.412;5.436;2022-12-18T06:59:19;28.85;;;13.75;;
73980;SDS011;62348;51.412;5.436;2022-12-18T07:01:44;27.42;;;13.02;;
73980;SDS011;62348;51.412;5.436;2022-12-18T07:04:09;31.38;;;14.40;;
73980;SDS011;62348;51.412;5.436;2022-12-18T07:06:35;28.52;;;13.10;;
73980;SDS011;62348;51.412;5.436;2022-12-18T07:09:00;25.80;;;13.73;;
73980;SDS011;62348;51.412;5.436;2022-12-18T07:11:25;26.45;;;13.15;;
73980;SDS011;62348;51.412;5.436;2022-12-18T07:13:51;25.38;;;13.90;;
73980;SDS011;62348;51.412;5.436;2022-12-18T07:16:17;32.78;;;15.55;;
73980;SDS011;62348;51.412;5.436;2022-12-18T07:18:44;27.00;;;12.73;;
73980;SDS011;62348;51.412;5.436;2022-12-18T07:21:11;26.80;;;14.82;;
73980;SDS011;62348;51.412;5.436;2022-12-18T07:23:39;26.75;;;13.52;;
73980;SDS011;62348;51.412;5.436;2022-12-18T07:26:05;23.95;;;13.18;;
73980;SDS011;62348;51.412;5.436;2022-12-18T07:28:32;23.73;;;13.52;;
73980;SDS011;62348;51.412;5.436;2022-12-18T07:31:02;27.88;;;13.85;;
73980;SDS011;62348;51.412;5.436;2022-12-18T07:33:32;27.63;;;13.93;;
73980;SDS011;62348;51.412;5.436;2022-12-18T07:35:59;26.20;;;13.57;;
73980;SDS011;62348;51.412;5.436;2022-12-18T07:38:25;27.08;;;14.07;;
73980;SDS011;62348;51.412;5.436;2022-12-18T07:40:50;22.90;;;13.25;;
73980;SDS011;62348;51.412;5.436;2022-12-18T07:43:16;28.73;;;14.30;;
73980;SDS011;62348;51.412;5.436;2022-12-18T07:45:42;27.20;;;13.10;;
73980;SDS011;62348;51.412;5.436;2022-12-18T07:48:08;30.52;;;14.65;;
73980;SDS011;62348;51.412;5.436;2022-12-18T07:50:33;28.55;;;14.40;;
73980;SDS011;62348;51.412;5.436;2022-12-18T07:52:59;27.33;;;15.48;;
73980;SDS011;62348;51.412;5.436;2022-12-18T07:55:28;36.63;;;18.40;;
73980;SDS011;62348;51.412;5.436;2022-12-18T07:57:54;30.65;;;14.80;;
73980;SDS011;62348;51.412;5.436;2022-12-18T08:00:19;30.33;;;15.48;;
73980;SDS011;62348;51.412;5.436;2022-12-18T08:02:45;30.58;;;14.68;;
73980;SDS011;62348;51.412;5.436;2022-12-18T08:05:11;29.70;;;13.43;;
73980;SDS011;62348;51.412;5.436;2022-12-18T08:07:36;26.67;;;14.18;;
73980;SDS011;62348;51.412;5.436;2022-12-18T08:10:01;32.55;;;14.40;;
73980;SDS011;62348;51.412;5.436;2022-12-18T08:12:27;32.40;;;14.75;;
73980;SDS011;62348;51.412;5.436;2022-12-18T08:14:52;28.98;;;16.08;;
73980;SDS011;62348;51.412;5.436;2022-12-18T08:17:19;34.38;;;14.73;;
73980;SDS011;62348;51.412;5.436;2022-12-18T08:19:45;30.67;;;15.60;;
73980;SDS011;62348;51.412;5.436;2022-12-18T08:22:10;36.47;;;15.63;;
73980;SDS011;62348;51.412;5.436;2022-12-18T08:24:35;28.65;;;14.68;;
73980;SDS011;62348;51.412;5.436;2022-12-18T08:27:01;32.33;;;16.38;;
73980;SDS011;62348;51.412;5.436;2022-12-18T08:29:26;28.85;;;15.52;;
73980;SDS011;62348;51.412;5.436;2022-12-18T08:31:51;34.00;;;15.63;;
73980;SDS011;62348;51.412;5.436;2022-12-18T08:34:17;28.10;;;14.93;;
73980;SDS011;62348;51.412;5.436;2022-12-18T08:36:42;30.50;;;14.68;;
73980;SDS011;62348;51.412;5.436;2022-12-18T08:39:07;35.10;;;17.35;;
73980;SDS011;62348;51.412;5.436;2022-12-18T08:41:33;29.83;;;15.40;;
73980;SDS011;62348;51.412;5.436;2022-12-18T08:43:58;29.88;;;15.98;;
73980;SDS011;62348;51.412;5.436;2022-12-18T08:46:42;29.60;;;16.05;;
73980;SDS011;62348;51.412;5.436;2022-12-18T08:49:09;31.88;;;15.10;;
73980;SDS011;62348;51.412;5.436;2022-12-18T08:51:36;31.05;;;15.65;;
73980;SDS011;62348;51.412;5.436;2022-12-18T08:54:02;30.67;;;15.43;;
73980;SDS011;62348;51.412;5.436;2022-12-18T08:56:29;29.88;;;15.25;;
73980;SDS011;62348;51.412;5.436;2022-12-18T08:58:55;31.13;;;16.65;;
73980;SDS011;62348;51.412;5.436;2022-12-18T09:01:21;32.50;;;15.57;;
73980;SDS011;62348;51.412;5.436;2022-12-18T09:03:48;31.08;;;15.73;;
73980;SDS011;62348;51.412;5.436;2022-12-18T09:06:15;28.05;;;15.73;;
73980;SDS011;62348;51.412;5.436;2022-12-18T09:08:43;33.15;;;16.55;;
73980;SDS011;62348;51.412;5.436;2022-12-18T09:11:13;32.38;;;16.80;;
73980;SDS011;62348;51.412;5.436;2022-12-18T09:13:43;29.83;;;15.70;;
73980;SDS011;62348;51.412;5.436;2022-12-18T09:16:08;30.90;;;16.85;;
73980;SDS011;62348;51.412;5.436;2022-12-18T09:18:34;31.85;;;15.55;;
73980;SDS011;62348;51.412;5.436;2022-12-18T09:21:00;35.95;;;15.60;;
73980;SDS011;62348;51.412;5.436;2022-12-18T09:23:32;29.70;;;16.95;;
73980;SDS011;62348;51.412;5.436;2022-12-18T09:25:58;30.33;;;17.95;;
73980;SDS011;62348;51.412;5.436;2022-12-18T09:28:24;29.27;;;14.45;;
73980;SDS011;62348;51.412;5.436;2022-12-18T09:30:50;32.97;;;16.80;;
73980;SDS011;62348;51.412;5.436;2022-12-18T09:33:16;30.98;;;16.25;;
73980;SDS011;62348;51.412;5.436;2022-12-18T09:35:42;32.88;;;16.25;;
73980;SDS011;62348;51.412;5.436;2022-12-18T09:38:09;34.28;;;17.45;;
73980;SDS011;62348;51.412;5.436;2022-12-18T09:40:41;32.42;;;16.10;;
73980;SDS011;62348;51.412;5.436;2022-12-18T09:43:12;34.35;;;19.00;;
73980;SDS011;62348;51.412;5.436;2022-12-18T09:45:46;34.17;;;17.25;;
73980;SDS011;62348;51.412;5.436;2022-12-18T09:48:21;33.97;;;17.80;;
73980;SDS011;62348;51.412;5.436;2022-12-18T09:51:03;31.80;;;16.48;;
73980;SDS011;62348;51.412;5.436;2022-12-18T09:53:38;33.10;;;17.45;;
73980;SDS011;62348;51.412;5.436;2022-12-18T09:56:06;37.08;;;17.10;;
73980;SDS011;62348;51.412;5.436;2022-12-18T09:59:00;34.85;;;18.02;;
73980;SDS011;62348;51.412;5.436;2022-12-18T10:01:27;36.42;;;17.38;;
73980;SDS011;62348;51.412;5.436;2022-12-18T10:03:54;31.30;;;17.90;;
73980;SDS011;62348;51.412;5.436;2022-12-18T10:06:29;32.17;;;17.40;;
73980;SDS011;62348;51.412;5.436;2022-12-18T10:12:22;29.63;;;16.60;;
73980;SDS011;62348;51.412;5.436;2022-12-18T10:20:03;33.47;;;18.35;;
73980;SDS011;62348;51.412;5.436;2022-12-18T10:22:57;37.72;;;18.65;;
73980;SDS011;62348;51.412;5.436;2022-12-18T10:25:32;34.78;;;18.17;;
73980;SDS011;62348;51.412;5.436;2022-12-18T10:28:09;35.85;;;18.77;;
73980;SDS011;62348;51.412;5.436;2022-12-18T10:30:38;42.13;;;18.98;;
73980;SDS011;62348;51.412;5.436;2022-12-18T10:33:04;33.45;;;17.45;;
73980;SDS011;62348;51.412;5.436;2022-12-18T10:35:30;39.88;;;20.05;;
73980;SDS011;62348;51.412;5.436;2022-12-18T10:38:03;33.78;;;18.67;;
73980;SDS011;62348;51.412;5.436;2022-12-18T10:40:55;35.33;;;18.65;;
73980;SDS011;62348;51.412;5.436;2022-12-18T10:43:29;34.95;;;19.50;;
73980;SDS011;62348;51.412;5.436;2022-12-18T10:46:03;34.00;;;19.23;;
73980;SDS011;62348;51.412;5.436;2022-12-18T10:48:33;41.85;;;19.67;;
73980;SDS011;62348;51.412;5.436;2022-12-18T10:51:01;37.72;;;21.17;;
73980;SDS011;62348;51.412;5.436;2022-12-18T10:53:28;39.53;;;19.50;;
73980;SDS011;62348;51.412;5.436;2022-12-18T10:55:57;38.47;;;20.58;;
73980;SDS011;62348;51.412;5.436;2022-12-18T10:58:28;37.30;;;19.38;;
73980;SDS011;62348;51.412;5.436;2022-12-18T11:01:03;39.78;;;19.75;;
73980;SDS011;62348;51.412;5.436;2022-12-18T11:03:35;39.20;;;19.50;;
73980;SDS011;62348;51.412;5.436;2022-12-18T11:06:03;36.35;;;19.35;;
73980;SDS011;62348;51.412;5.436;2022-12-18T11:08:38;32.85;;;19.67;;
73980;SDS011;62348;51.412;5.436;2022-12-18T11:11:07;39.03;;;19.88;;
73980;SDS011;62348;51.412;5.436;2022-12-18T11:13:58;37.53;;;19.23;;
73980;SDS011;62348;51.412;5.436;2022-12-18T11:16:30;34.60;;;18.83;;
73980;SDS011;62348;51.412;5.436;2022-12-18T11:19:10;36.53;;;18.13;;
73980;SDS011;62348;51.412;5.436;2022-12-18T11:21:47;35.08;;;19.23;;
73980;SDS011;62348;51.412;5.436;2022-12-18T11:26:53;34.60;;;18.85;;
73980;SDS011;62348;51.412;5.436;2022-12-18T11:29:23;36.35;;;20.55;;
73980;SDS011;62348;51.412;5.436;2022-12-18T11:32:09;37.00;;;18.70;;
73980;SDS011;62348;51.412;5.436;2022-12-18T11:37:53;30.30;;;17.60;;
73980;SDS011;62348;51.412;5.436;2022-12-18T11:40:27;35.42;;;18.52;;
73980;SDS011;62348;51.412;5.436;2022-12-18T11:43:07;36.47;;;19.27;;
73980;SDS011;62348;51.412;5.436;2022-12-18T11:45:43;38.30;;;18.58;;
73980;SDS011;62348;51.412;5.436;2022-12-18T11:48:17;30.05;;;17.60;;
73980;SDS011;62348;51.412;5.436;2022-12-18T11:53:21;32.15;;;18.40;;
73980;SDS011;62348;51.412;5.436;2022-12-18T12:07:04;33.25;;;17.65;;
73980;SDS011;62348;51.412;5.436;2022-12-18T12:09:56;34.03;;;18.77;;
73980;SDS011;62348;51.412;5.436;2022-12-18T12:15:22;35.58;;;18.52;;
73980;SDS011;62348;51.412;5.436;2022-12-18T12:18:20;35.53;;;18.15;;
73980;SDS011;62348;51.412;5.436;2022-12-18T12:26:12;33.33;;;18.20;;
73980;SDS011;62348;51.412;5.436;2022-12-18T12:31:56;35.23;;;19.63;;
73980;SDS011;62348;51.412;5.436;2022-12-18T12:34:50;35.63;;;18.45;;
73980;SDS011;62348;51.412;5.436;2022-12-18T12:37:41;30.90;;;18.02;;
73980;SDS011;62348;51.412;5.436;2022-12-18T12:40:11;35.40;;;19.02;;
73980;SDS011;62348;51.412;5.436;2022-12-18T12:45:28;31.17;;;17.90;;
73980;SDS011;62348;51.412;5.436;2022-12-18T12:48:03;31.45;;;17.35;;
73980;SDS011;62348;51.412;5.436;2022-12-18T12:50:33;34.00;;;18.75;;
73980;SDS011;62348;51.412;5.436;2022-12-18T12:53:00;31.42;;;16.33;;
73980;SDS011;62348;51.412;5.436;2022-12-18T12:55:31;33.47;;;18.02;;
73980;SDS011;62348;51.412;5.436;2022-12-18T12:58:15;27.33;;;16.83;;
73980;SDS011;62348;51.412;5.436;2022-12-18T13:06:32;30.88;;;16.88;;
73980;SDS011;62348;51.412;5.436;2022-12-18T13:09:21;36.97;;;19.27;;
73980;SDS011;62348;51.412;5.436;2022-12-18T13:11:47;33.78;;;18.15;;
73980;SDS011;62348;51.412;5.436;2022-12-18T13:14:38;34.72;;;17.90;;
73980;SDS011;62348;51.412;5.436;2022-12-18T13:19:51;34.00;;;18.85;;
73980;SDS011;62348;51.412;5.436;2022-12-18T13:25:26;31.55;;;17.08;;
73980;SDS011;62348;51.412;5.436;2022-12-18T13:28:11;30.25;;;18.35;;
73980;SDS011;62348;51.412;5.436;2022-12-18T13:30:41;31.92;;;19.05;;
73980;SDS011;62348;51.412;5.436;2022-12-18T13:35:40;33.42;;;18.42;;
73980;SDS011;62348;51.412;5.436;2022-12-18T13:38:23;33.40;;;19.13;;
73980;SDS011;62348;51.412;5.436;2022-12-18T13:43:42;32.85;;;19.00;;
73980;SDS011;62348;51.412;5.436;2022-12-18T13:46:19;31.83;;;17.98;;
73980;SDS011;62348;51.412;5.436;2022-12-18T13:51:31;29.02;;;17.42;;
73980;SDS011;62348;51.412;5.436;2022-12-18T13:53:59;36.33;;;18.23;;
73980;SDS011;62348;51.412;5.436;2022-12-18T13:56:29;33.10;;;17.83;;
73980;SDS011;62348;51.412;5.436;2022-12-18T14:01:33;32.50;;;18.20;;
73980;SDS011;62348;51.412;5.436;2022-12-18T14:04:34;33.05;;;19.40;;
73980;SDS011;62348;51.412;5.436;2022-12-18T14:06:57;37.10;;;18.80;;
73980;SDS011;62348;51.412;5.436;2022-12-18T14:09:29;29.63;;;16.90;;
73980;SDS011;62348;51.412;5.436;2022-12-18T14:11:56;33.30;;;18.10;;
73980;SDS011;62348;51.412;5.436;2022-12-18T14:14:43;35.17;;;18.23;;
73980;SDS011;62348;51.412;5.436;2022-12-18T14:17:12;33.33;;;18.75;;
73980;SDS011;62348;51.412;5.436;2022-12-18T14:19:41;29.42;;;18.38;;
73980;SDS011;62348;51.412;5.436;2022-12-18T14:22:12;32.78;;;17.73;;
73980;SDS011;62348;51.412;5.436;2022-12-18T14:24:41;32.38;;;18.55;;
73980;SDS011;62348;51.412;5.436;2022-12-18T14:27:20;35.50;;;18.45;;
73980;SDS011;62348;51.412;5.436;2022-12-18T14:29:48;29.52;;;16.67;;
73980;SDS011;62348;51.412;5.436;2022-12-18T14:32:14;31.05;;;17.13;;
73980;SDS011;62348;51.412;5.436;2022-12-18T14:34:51;29.85;;;17.35;;
73980;SDS011;62348;51.412;5.436;2022-12-18T14:37:23;30.60;;;17.13;;
73980;SDS011;62348;51.412;5.436;2022-12-18T14:40:11;30.75;;;17.27;;
73980;SDS011;62348;51.412;5.436;2022-12-18T14:42:38;29.02;;;17.77;;
73980;SDS011;62348;51.412;5.436;2022-12-18T14:48:18;33.65;;;16.30;;
73980;SDS011;62348;51.412;5.436;2022-12-18T14:50:53;30.90;;;16.23;;
73980;SDS011;62348;51.412;5.436;2022-12-18T14:55:56;32.35;;;17.27;;
73980;SDS011;62348;51.412;5.436;2022-12-18T14:58:21;28.80;;;16.60;;
73980;SDS011;62348;51.412;5.436;2022-12-18T15:00:47;29.58;;;16.83;;
73980;SDS011;62348;51.412;5.436;2022-12-18T15:03:14;28.25;;;17.27;;
73980;SDS011;62348;51.412;5.436;2022-12-18T15:05:44;28.63;;;17.63;;
73980;SDS011;62348;51.412;5.436;2022-12-18T15:08:55;28.65;;;16.73;;
73980;SDS011;62348;51.412;5.436;2022-12-18T15:11:22;27.63;;;16.67;;
73980;SDS011;62348;51.412;5.436;2022-12-18T15:13:54;29.38;;;17.17;;
73980;SDS011;62348;51.412;5.436;2022-12-18T15:16:19;28.60;;;17.70;;
73980;SDS011;62348;51.412;5.436;2022-12-18T15:18:45;31.00;;;16.80;;
73980;SDS011;62348;51.412;5.436;2022-12-18T15:21:15;30.83;;;18.45;;
73980;SDS011;62348;51.412;5.436;2022-12-18T15:26:10;32.15;;;17.25;;
73980;SDS011;62348;51.412;5.436;2022-12-18T15:34:22;32.58;;;18.17;;
73980;SDS011;62348;51.412;5.436;2022-12-18T15:36:24;29.88;;;16.08;;
73980;SDS011;62348;51.412;5.436;2022-12-18T15:38:54;27.92;;;16.40;;
73980;SDS011;62348;51.412;5.436;2022-12-18T15:41:21;30.25;;;16.75;;
73980;SDS011;62348;51.412;5.436;2022-12-18T15:43:47;30.98;;;17.52;;
73980;SDS011;62348;51.412;5.436;2022-12-18T15:46:16;31.17;;;17.27;;
73980;SDS011;62348;51.412;5.436;2022-12-18T15:48:51;29.27;;;16.60;;
73980;SDS011;62348;51.412;5.436;2022-12-18T15:51:29;31.10;;;17.33;;
73980;SDS011;62348;51.412;5.436;2022-12-18T15:54:01;33.65;;;17.95;;
73980;SDS011;62348;51.412;5.436;2022-12-18T15:56:29;30.38;;;16.85;;
73980;SDS011;62348;51.412;5.436;2022-12-18T15:59:14;29.67;;;17.45;;
73980;SDS011;62348;51.412;5.436;2022-12-18T16:01:41;26.98;;;17.42;;
73980;SDS011;62348;51.412;5.436;2022-12-18T16:04:13;30.20;;;17.25;;
73980;SDS011;62348;51.412;5.436;2022-12-18T16:06:40;32.22;;;16.50;;
73980;SDS011;62348;51.412;5.436;2022-12-18T16:09:06;29.50;;;17.88;;
73980;SDS011;62348;51.412;5.436;2022-12-18T16:11:32;30.17;;;18.08;;
73980;SDS011;62348;51.412;5.436;2022-12-18T16:14:19;31.33;;;17.20;;
73980;SDS011;62348;51.412;5.436;2022-12-18T16:16:47;34.05;;;17.08;;
73980;SDS011;62348;51.412;5.436;2022-12-18T16:19:14;29.30;;;17.52;;
73980;SDS011;62348;51.412;5.436;2022-12-18T16:21:41;33.00;;;18.60;;